sensor_id;sensor_type;location;lat;lon;timestamp;P1;durP1;ratioP1;P2;durP2;ratioP2
22929;SDS011;11630;42.660;23.292;2023-07-28T00:01:13;2.60;;;2.40;;
22929;SDS011;11630;42.660;23.292;2023-07-28T00:03:44;2.50;;;2.30;;
22929;SDS011;11630;42.660;23.292;2023-07-28T00:06:14;3.20;;;1.97;;
22929;SDS011;11630;42.660;23.292;2023-07-28T00:08:46;2.57;;;2.37;;
22929;SDS011;11630;42.660;23.292;2023-07-28T00:11:16;2.67;;;2.20;;
22929;SDS011;11630;42.660;23.292;2023-07-28T00:13:50;2.60;;;2.37;;
22929;SDS011;11630;42.660;23.292;2023-07-28T00:16:22;2.60;;;2.13;;
22929;SDS011;11630;42.660;23.292;2023-07-28T00:18:53;2.40;;;2.20;;
22929;SDS011;11630;42.660;23.292;2023-07-28T00:21:23;2.73;;;2.27;;
22929;SDS011;11630;42.660;23.292;2023-07-28T00:23:55;4.87;;;2.17;;
22929;SDS011;11630;42.660;23.292;2023-07-28T00:26:27;4.17;;;2.20;;
22929;SDS011;11630;42.660;23.292;2023-07-28T00:28:58;2.73;;;2.53;;
22929;SDS011;11630;42.660;23.292;2023-07-28T00:31:29;2.43;;;2.23;;
22929;SDS011;11630;42.660;23.292;2023-07-28T00:34:01;4.37;;;2.27;;
22929;SDS011;11630;42.660;23.292;2023-07-28T00:36:32;3.17;;;2.23;;
22929;SDS011;11630;42.660;23.292;2023-07-28T00:39:03;2.53;;;2.33;;
22929;SDS011;11630;42.660;23.292;2023-07-28T00:41:33;4.00;;;2.67;;
22929;SDS011;11630;42.660;23.292;2023-07-28T00:44:04;5.73;;;3.00;;
22929;SDS011;11630;42.660;23.292;2023-07-28T00:46:35;3.67;;;2.57;;
22929;SDS011;11630;42.660;23.292;2023-07-28T00:49:06;5.47;;;2.40;;
22929;SDS011;11630;42.660;23.292;2023-07-28T00:51:37;3.43;;;2.60;;
22929;SDS011;11630;42.660;23.292;2023-07-28T00:54:08;2.80;;;2.60;;
22929;SDS011;11630;42.660;23.292;2023-07-28T00:56:39;3.23;;;2.93;;
22929;SDS011;11630;42.660;23.292;2023-07-28T00:59:09;6.03;;;2.93;;
22929;SDS011;11630;42.660;23.292;2023-07-28T01:01:38;4.47;;;3.00;;
22929;SDS011;11630;42.660;23.292;2023-07-28T01:04:09;4.03;;;3.57;;
22929;SDS011;11630;42.660;23.292;2023-07-28T01:06:42;4.07;;;3.03;;
22929;SDS011;11630;42.660;23.292;2023-07-28T01:09:18;7.03;;;3.17;;
22929;SDS011;11630;42.660;23.292;2023-07-28T01:11:55;5.57;;;3.73;;
22929;SDS011;11630;42.660;23.292;2023-07-28T01:14:26;3.97;;;3.67;;
22929;SDS011;11630;42.660;23.292;2023-07-28T01:16:57;6.60;;;4.10;;
22929;SDS011;11630;42.660;23.292;2023-07-28T01:19:28;4.57;;;3.60;;
22929;SDS011;11630;42.660;23.292;2023-07-28T01:22:11;5.90;;;3.70;;
22929;SDS011;11630;42.660;23.292;2023-07-28T01:27:45;4.57;;;3.87;;
22929;SDS011;11630;42.660;23.292;2023-07-28T01:30:18;4.87;;;4.47;;
22929;SDS011;11630;42.660;23.292;2023-07-28T01:32:48;5.47;;;4.83;;
22929;SDS011;11630;42.660;23.292;2023-07-28T01:35:18;5.37;;;4.00;;
22929;SDS011;11630;42.660;23.292;2023-07-28T01:37:48;3.27;;;2.97;;
22929;SDS011;11630;42.660;23.292;2023-07-28T01:40:20;7.83;;;3.53;;
22929;SDS011;11630;42.660;23.292;2023-07-28T01:42:50;4.17;;;3.83;;
22929;SDS011;11630;42.660;23.292;2023-07-28T01:45:21;5.17;;;3.23;;
22929;SDS011;11630;42.660;23.292;2023-07-28T01:47:52;3.63;;;3.33;;
22929;SDS011;11630;42.660;23.292;2023-07-28T01:50:23;5.63;;;3.43;;
22929;SDS011;11630;42.660;23.292;2023-07-28T01:52:54;3.73;;;3.27;;
22929;SDS011;11630;42.660;23.292;2023-07-28T01:55:24;4.10;;;3.77;;
22929;SDS011;11630;42.660;23.292;2023-07-28T01:57:59;7.67;;;3.73;;
22929;SDS011;11630;42.660;23.292;2023-07-28T02:00:30;4.17;;;3.87;;
22929;SDS011;11630;42.660;23.292;2023-07-28T02:03:01;4.13;;;3.83;;
22929;SDS011;11630;42.660;23.292;2023-07-28T02:05:32;6.53;;;3.70;;
22929;SDS011;11630;42.660;23.292;2023-07-28T02:08:02;4.97;;;3.40;;
22929;SDS011;11630;42.660;23.292;2023-07-28T02:10:33;7.23;;;3.57;;
22929;SDS011;11630;42.660;23.292;2023-07-28T02:13:04;3.80;;;3.50;;
22929;SDS011;11630;42.660;23.292;2023-07-28T02:15:35;4.93;;;3.47;;
22929;SDS011;11630;42.660;23.292;2023-07-28T02:18:06;3.60;;;3.27;;
22929;SDS011;11630;42.660;23.292;2023-07-28T02:20:37;4.47;;;3.17;;
22929;SDS011;11630;42.660;23.292;2023-07-28T02:23:09;4.00;;;3.70;;
22929;SDS011;11630;42.660;23.292;2023-07-28T02:25:40;4.07;;;3.77;;
22929;SDS011;11630;42.660;23.292;2023-07-28T02:28:11;9.43;;;4.03;;
22929;SDS011;11630;42.660;23.292;2023-07-28T02:30:42;7.63;;;4.00;;
22929;SDS011;11630;42.660;23.292;2023-07-28T02:33:13;3.97;;;3.57;;
22929;SDS011;11630;42.660;23.292;2023-07-28T02:35:43;4.83;;;4.00;;
22929;SDS011;11630;42.660;23.292;2023-07-28T02:38:14;7.67;;;4.00;;
22929;SDS011;11630;42.660;23.292;2023-07-28T02:40:45;6.77;;;3.70;;
22929;SDS011;11630;42.660;23.292;2023-07-28T02:43:16;10.93;;;3.90;;
22929;SDS011;11630;42.660;23.292;2023-07-28T02:45:48;4.03;;;3.43;;
22929;SDS011;11630;42.660;23.292;2023-07-28T02:48:25;8.07;;;4.03;;
22929;SDS011;11630;42.660;23.292;2023-07-28T02:51:01;4.93;;;4.03;;
22929;SDS011;11630;42.660;23.292;2023-07-28T02:53:39;5.87;;;4.30;;
22929;SDS011;11630;42.660;23.292;2023-07-28T02:56:09;6.63;;;3.87;;
22929;SDS011;11630;42.660;23.292;2023-07-28T02:58:40;4.97;;;4.33;;
22929;SDS011;11630;42.660;23.292;2023-07-28T03:01:11;4.77;;;3.70;;
22929;SDS011;11630;42.660;23.292;2023-07-28T03:03:42;6.20;;;3.93;;
22929;SDS011;11630;42.660;23.292;2023-07-28T03:06:13;7.53;;;3.87;;
22929;SDS011;11630;42.660;23.292;2023-07-28T03:08:43;5.60;;;3.90;;
22929;SDS011;11630;42.660;23.292;2023-07-28T03:11:14;3.77;;;3.47;;
22929;SDS011;11630;42.660;23.292;2023-07-28T03:13:44;6.97;;;3.73;;
22929;SDS011;11630;42.660;23.292;2023-07-28T03:16:14;7.63;;;4.23;;
22929;SDS011;11630;42.660;23.292;2023-07-28T03:18:46;5.93;;;3.97;;
22929;SDS011;11630;42.660;23.292;2023-07-28T03:21:16;5.03;;;4.60;;
22929;SDS011;11630;42.660;23.292;2023-07-28T03:23:47;5.50;;;4.03;;
22929;SDS011;11630;42.660;23.292;2023-07-28T03:26:18;3.67;;;3.37;;
22929;SDS011;11630;42.660;23.292;2023-07-28T03:28:49;8.27;;;4.10;;
22929;SDS011;11630;42.660;23.292;2023-07-28T03:31:20;4.30;;;3.90;;
22929;SDS011;11630;42.660;23.292;2023-07-28T03:33:51;5.27;;;3.87;;
22929;SDS011;11630;42.660;23.292;2023-07-28T03:36:21;5.47;;;4.40;;
22929;SDS011;11630;42.660;23.292;2023-07-28T03:38:53;6.13;;;4.27;;
22929;SDS011;11630;42.660;23.292;2023-07-28T03:41:27;8.27;;;3.53;;
22929;SDS011;11630;42.660;23.292;2023-07-28T03:43:58;7.87;;;4.30;;
22929;SDS011;11630;42.660;23.292;2023-07-28T03:46:28;10.13;;;4.67;;
22929;SDS011;11630;42.660;23.292;2023-07-28T03:49:02;13.57;;;4.13;;
22929;SDS011;11630;42.660;23.292;2023-07-28T03:51:33;7.00;;;4.33;;
22929;SDS011;11630;42.660;23.292;2023-07-28T03:54:04;9.07;;;4.57;;
22929;SDS011;11630;42.660;23.292;2023-07-28T03:56:36;4.07;;;3.57;;
22929;SDS011;11630;42.660;23.292;2023-07-28T03:59:07;5.17;;;4.67;;
22929;SDS011;11630;42.660;23.292;2023-07-28T04:01:38;8.27;;;4.60;;
22929;SDS011;11630;42.660;23.292;2023-07-28T04:04:09;8.03;;;3.77;;
22929;SDS011;11630;42.660;23.292;2023-07-28T04:06:44;7.13;;;4.47;;
22929;SDS011;11630;42.660;23.292;2023-07-28T04:09:15;5.10;;;4.33;;
22929;SDS011;11630;42.660;23.292;2023-07-28T04:11:46;5.27;;;4.47;;
22929;SDS011;11630;42.660;23.292;2023-07-28T04:14:15;4.17;;;3.87;;
22929;SDS011;11630;42.660;23.292;2023-07-28T04:16:46;6.97;;;4.53;;
22929;SDS011;11630;42.660;23.292;2023-07-28T04:19:17;7.10;;;4.90;;
22929;SDS011;11630;42.660;23.292;2023-07-28T04:21:47;12.93;;;5.07;;
22929;SDS011;11630;42.660;23.292;2023-07-28T04:24:18;4.80;;;4.40;;
22929;SDS011;11630;42.660;23.292;2023-07-28T04:26:49;5.23;;;4.67;;
22929;SDS011;11630;42.660;23.292;2023-07-28T04:29:20;6.23;;;5.40;;
22929;SDS011;11630;42.660;23.292;2023-07-28T04:31:50;6.87;;;5.10;;
22929;SDS011;11630;42.660;23.292;2023-07-28T04:34:22;12.23;;;5.07;;
22929;SDS011;11630;42.660;23.292;2023-07-28T04:36:52;6.10;;;4.83;;
22929;SDS011;11630;42.660;23.292;2023-07-28T04:39:24;12.50;;;5.27;;
22929;SDS011;11630;42.660;23.292;2023-07-28T04:41:54;6.93;;;4.27;;
22929;SDS011;11630;42.660;23.292;2023-07-28T04:44:25;7.33;;;4.33;;
22929;SDS011;11630;42.660;23.292;2023-07-28T04:46:57;5.10;;;4.43;;
22929;SDS011;11630;42.660;23.292;2023-07-28T04:49:27;11.23;;;4.87;;
22929;SDS011;11630;42.660;23.292;2023-07-28T04:51:58;7.70;;;4.47;;
22929;SDS011;11630;42.660;23.292;2023-07-28T04:54:29;14.60;;;5.37;;
22929;SDS011;11630;42.660;23.292;2023-07-28T04:57:00;7.57;;;4.37;;
22929;SDS011;11630;42.660;23.292;2023-07-28T04:59:30;7.47;;;4.47;;
22929;SDS011;11630;42.660;23.292;2023-07-28T05:02:01;6.00;;;4.87;;
22929;SDS011;11630;42.660;23.292;2023-07-28T05:04:31;8.73;;;4.50;;
22929;SDS011;11630;42.660;23.292;2023-07-28T05:07:01;8.37;;;4.27;;
22929;SDS011;11630;42.660;23.292;2023-07-28T05:09:32;7.37;;;4.73;;
22929;SDS011;11630;42.660;23.292;2023-07-28T05:12:03;7.60;;;4.47;;
22929;SDS011;11630;42.660;23.292;2023-07-28T05:14:34;12.30;;;5.33;;
22929;SDS011;11630;42.660;23.292;2023-07-28T05:17:05;8.27;;;4.77;;
22929;SDS011;11630;42.660;23.292;2023-07-28T05:19:36;6.60;;;5.23;;
22929;SDS011;11630;42.660;23.292;2023-07-28T05:22:06;5.33;;;4.63;;
22929;SDS011;11630;42.660;23.292;2023-07-28T05:24:37;9.97;;;4.30;;
22929;SDS011;11630;42.660;23.292;2023-07-28T05:27:11;7.77;;;4.17;;
22929;SDS011;11630;42.660;23.292;2023-07-28T05:29:41;6.07;;;4.57;;
22929;SDS011;11630;42.660;23.292;2023-07-28T05:32:12;12.43;;;4.90;;
22929;SDS011;11630;42.660;23.292;2023-07-28T05:34:43;12.07;;;4.57;;
22929;SDS011;11630;42.660;23.292;2023-07-28T05:37:16;8.50;;;4.50;;
22929;SDS011;11630;42.660;23.292;2023-07-28T05:39:48;9.13;;;4.53;;
22929;SDS011;11630;42.660;23.292;2023-07-28T05:42:17;7.60;;;4.27;;
22929;SDS011;11630;42.660;23.292;2023-07-28T05:44:48;7.10;;;4.43;;
22929;SDS011;11630;42.660;23.292;2023-07-28T05:47:22;13.90;;;4.57;;
22929;SDS011;11630;42.660;23.292;2023-07-28T05:49:53;11.60;;;4.83;;
22929;SDS011;11630;42.660;23.292;2023-07-28T05:52:24;5.87;;;4.10;;
22929;SDS011;11630;42.660;23.292;2023-07-28T05:54:55;7.53;;;4.50;;
22929;SDS011;11630;42.660;23.292;2023-07-28T05:57:25;14.30;;;4.10;;
22929;SDS011;11630;42.660;23.292;2023-07-28T05:59:56;5.80;;;4.37;;
22929;SDS011;11630;42.660;23.292;2023-07-28T06:02:27;9.63;;;4.73;;
22929;SDS011;11630;42.660;23.292;2023-07-28T06:05:01;10.90;;;5.50;;
22929;SDS011;11630;42.660;23.292;2023-07-28T06:07:32;11.27;;;5.23;;
22929;SDS011;11630;42.660;23.292;2023-07-28T06:10:04;8.67;;;5.23;;
22929;SDS011;11630;42.660;23.292;2023-07-28T06:12:36;13.03;;;5.23;;
22929;SDS011;11630;42.660;23.292;2023-07-28T06:15:07;9.37;;;6.20;;
22929;SDS011;11630;42.660;23.292;2023-07-28T06:17:38;8.60;;;4.60;;
22929;SDS011;11630;42.660;23.292;2023-07-28T06:20:09;13.37;;;5.80;;
22929;SDS011;11630;42.660;23.292;2023-07-28T06:22:40;11.10;;;4.80;;
22929;SDS011;11630;42.660;23.292;2023-07-28T06:25:10;10.83;;;4.57;;
22929;SDS011;11630;42.660;23.292;2023-07-28T06:27:41;21.63;;;5.73;;
22929;SDS011;11630;42.660;23.292;2023-07-28T06:30:12;9.83;;;4.70;;
22929;SDS011;11630;42.660;23.292;2023-07-28T06:32:43;8.77;;;4.50;;
22929;SDS011;11630;42.660;23.292;2023-07-28T06:35:13;7.63;;;4.40;;
22929;SDS011;11630;42.660;23.292;2023-07-28T06:37:44;10.67;;;3.90;;
22929;SDS011;11630;42.660;23.292;2023-07-28T06:40:15;6.33;;;4.90;;
22929;SDS011;11630;42.660;23.292;2023-07-28T06:42:46;6.10;;;4.03;;
22929;SDS011;11630;42.660;23.292;2023-07-28T06:45:17;8.07;;;4.80;;
22929;SDS011;11630;42.660;23.292;2023-07-28T06:47:48;11.70;;;5.37;;
22929;SDS011;11630;42.660;23.292;2023-07-28T06:50:19;9.40;;;5.50;;
22929;SDS011;11630;42.660;23.292;2023-07-28T06:52:49;8.17;;;5.07;;
22929;SDS011;11630;42.660;23.292;2023-07-28T06:55:21;7.60;;;4.10;;
22929;SDS011;11630;42.660;23.292;2023-07-28T06:57:52;8.90;;;3.73;;
22929;SDS011;11630;42.660;23.292;2023-07-28T07:00:22;8.27;;;3.10;;
22929;SDS011;11630;42.660;23.292;2023-07-28T07:02:54;6.87;;;4.50;;
22929;SDS011;11630;42.660;23.292;2023-07-28T07:05:25;9.07;;;3.80;;
22929;SDS011;11630;42.660;23.292;2023-07-28T07:07:56;8.50;;;3.93;;
22929;SDS011;11630;42.660;23.292;2023-07-28T07:10:27;7.17;;;3.20;;
22929;SDS011;11630;42.660;23.292;2023-07-28T07:12:58;8.67;;;3.20;;
22929;SDS011;11630;42.660;23.292;2023-07-28T07:15:29;4.17;;;3.30;;
22929;SDS011;11630;42.660;23.292;2023-07-28T07:18:00;4.97;;;3.20;;
22929;SDS011;11630;42.660;23.292;2023-07-28T07:20:33;10.93;;;3.20;;
22929;SDS011;11630;42.660;23.292;2023-07-28T07:23:06;5.33;;;2.87;;
22929;SDS011;11630;42.660;23.292;2023-07-28T07:25:37;4.87;;;2.90;;
22929;SDS011;11630;42.660;23.292;2023-07-28T07:28:08;17.43;;;4.10;;
22929;SDS011;11630;42.660;23.292;2023-07-28T07:30:39;14.60;;;3.87;;
22929;SDS011;11630;42.660;23.292;2023-07-28T07:33:08;10.33;;;3.70;;
22929;SDS011;11630;42.660;23.292;2023-07-28T07:38:22;8.53;;;3.83;;
22929;SDS011;11630;42.660;23.292;2023-07-28T07:40:55;5.87;;;3.60;;
22929;SDS011;11630;42.660;23.292;2023-07-28T07:43:29;4.67;;;3.73;;
22929;SDS011;11630;42.660;23.292;2023-07-28T07:46:00;6.07;;;3.37;;
22929;SDS011;11630;42.660;23.292;2023-07-28T07:48:31;16.80;;;4.20;;
22929;SDS011;11630;42.660;23.292;2023-07-28T07:51:04;8.97;;;3.73;;
22929;SDS011;11630;42.660;23.292;2023-07-28T07:53:37;11.30;;;4.23;;
22929;SDS011;11630;42.660;23.292;2023-07-28T07:56:07;7.33;;;3.70;;
22929;SDS011;11630;42.660;23.292;2023-07-28T07:58:39;43.23;;;5.40;;
22929;SDS011;11630;42.660;23.292;2023-07-28T08:01:14;5.53;;;3.13;;
22929;SDS011;11630;42.660;23.292;2023-07-28T08:03:41;10.93;;;5.13;;
22929;SDS011;11630;42.660;23.292;2023-07-28T08:06:12;8.33;;;3.93;;
22929;SDS011;11630;42.660;23.292;2023-07-28T08:08:43;9.17;;;3.67;;
22929;SDS011;11630;42.660;23.292;2023-07-28T08:11:14;5.73;;;3.20;;
22929;SDS011;11630;42.660;23.292;2023-07-28T08:13:45;8.47;;;3.77;;
22929;SDS011;11630;42.660;23.292;2023-07-28T08:16:16;6.00;;;3.03;;
22929;SDS011;11630;42.660;23.292;2023-07-28T08:18:47;8.90;;;3.80;;
22929;SDS011;11630;42.660;23.292;2023-07-28T08:21:18;5.87;;;3.03;;
22929;SDS011;11630;42.660;23.292;2023-07-28T08:23:49;8.93;;;3.10;;
22929;SDS011;11630;42.660;23.292;2023-07-28T08:26:20;9.03;;;3.33;;
22929;SDS011;11630;42.660;23.292;2023-07-28T08:28:51;12.63;;;3.77;;
22929;SDS011;11630;42.660;23.292;2023-07-28T08:31:22;10.27;;;3.10;;
22929;SDS011;11630;42.660;23.292;2023-07-28T08:33:55;8.00;;;3.70;;
22929;SDS011;11630;42.660;23.292;2023-07-28T08:36:26;18.43;;;4.27;;
22929;SDS011;11630;42.660;23.292;2023-07-28T08:38:56;4.73;;;3.47;;
22929;SDS011;11630;42.660;23.292;2023-07-28T08:41:27;12.53;;;3.67;;
22929;SDS011;11630;42.660;23.292;2023-07-28T08:43:58;5.30;;;4.23;;
22929;SDS011;11630;42.660;23.292;2023-07-28T08:46:28;8.60;;;3.57;;
22929;SDS011;11630;42.660;23.292;2023-07-28T08:48:59;10.57;;;4.47;;
22929;SDS011;11630;42.660;23.292;2023-07-28T08:51:35;4.47;;;3.50;;
22929;SDS011;11630;42.660;23.292;2023-07-28T08:54:02;8.03;;;3.53;;
22929;SDS011;11630;42.660;23.292;2023-07-28T08:56:32;7.13;;;4.10;;
22929;SDS011;11630;42.660;23.292;2023-07-28T08:59:04;5.97;;;3.33;;
22929;SDS011;11630;42.660;23.292;2023-07-28T09:01:44;7.80;;;3.27;;
22929;SDS011;11630;42.660;23.292;2023-07-28T09:04:09;8.33;;;3.87;;
22929;SDS011;11630;42.660;23.292;2023-07-28T09:06:40;3.43;;;2.87;;
22929;SDS011;11630;42.660;23.292;2023-07-28T09:09:16;3.93;;;3.30;;
22929;SDS011;11630;42.660;23.292;2023-07-28T09:11:50;10.80;;;3.70;;
22929;SDS011;11630;42.660;23.292;2023-07-28T09:14:21;8.47;;;3.97;;
22929;SDS011;11630;42.660;23.292;2023-07-28T09:16:52;10.37;;;3.70;;
22929;SDS011;11630;42.660;23.292;2023-07-28T09:19:23;9.37;;;4.27;;
22929;SDS011;11630;42.660;23.292;2023-07-28T09:21:57;4.80;;;3.30;;
22929;SDS011;11630;42.660;23.292;2023-07-28T09:24:31;5.03;;;3.40;;
22929;SDS011;11630;42.660;23.292;2023-07-28T09:27:05;5.37;;;3.07;;
22929;SDS011;11630;42.660;23.292;2023-07-28T09:29:36;5.67;;;3.10;;
22929;SDS011;11630;42.660;23.292;2023-07-28T09:32:07;6.70;;;3.27;;
22929;SDS011;11630;42.660;23.292;2023-07-28T09:34:38;8.73;;;3.10;;
22929;SDS011;11630;42.660;23.292;2023-07-28T09:37:09;4.67;;;2.97;;
22929;SDS011;11630;42.660;23.292;2023-07-28T09:39:42;9.43;;;3.23;;
22929;SDS011;11630;42.660;23.292;2023-07-28T09:42:12;6.17;;;3.05;;
22929;SDS011;11630;42.660;23.292;2023-07-28T09:44:43;8.10;;;2.92;;
22929;SDS011;11630;42.660;23.292;2023-07-28T09:47:15;7.23;;;3.10;;
22929;SDS011;11630;42.660;23.292;2023-07-28T09:49:46;6.35;;;2.42;;
22929;SDS011;11630;42.660;23.292;2023-07-28T09:52:18;3.80;;;3.33;;
22929;SDS011;11630;42.660;23.292;2023-07-28T09:54:52;3.40;;;2.83;;
22929;SDS011;11630;42.660;23.292;2023-07-28T09:57:25;3.10;;;2.77;;
22929;SDS011;11630;42.660;23.292;2023-07-28T09:59:56;6.80;;;2.77;;
22929;SDS011;11630;42.660;23.292;2023-07-28T10:02:28;4.03;;;3.08;;
22929;SDS011;11630;42.660;23.292;2023-07-28T10:04:59;4.53;;;3.30;;
22929;SDS011;11630;42.660;23.292;2023-07-28T10:07:30;3.67;;;3.00;;
22929;SDS011;11630;42.660;23.292;2023-07-28T10:10:03;16.27;;;4.07;;
22929;SDS011;11630;42.660;23.292;2023-07-28T10:12:39;5.17;;;2.80;;
22929;SDS011;11630;42.660;23.292;2023-07-28T10:15:11;5.78;;;3.10;;
22929;SDS011;11630;42.660;23.292;2023-07-28T10:17:51;6.67;;;3.83;;
22929;SDS011;11630;42.660;23.292;2023-07-28T10:20:38;4.45;;;2.80;;
22929;SDS011;11630;42.660;23.292;2023-07-28T10:23:13;6.90;;;3.00;;
22929;SDS011;11630;42.660;23.292;2023-07-28T10:25:46;3.93;;;3.00;;
22929;SDS011;11630;42.660;23.292;2023-07-28T10:28:27;4.45;;;3.22;;
22929;SDS011;11630;42.660;23.292;2023-07-28T10:31:00;10.53;;;3.33;;
22929;SDS011;11630;42.660;23.292;2023-07-28T10:33:36;6.60;;;3.20;;
22929;SDS011;11630;42.660;23.292;2023-07-28T10:36:14;3.65;;;2.60;;
22929;SDS011;11630;42.660;23.292;2023-07-28T10:38:46;6.28;;;2.87;;
22929;SDS011;11630;42.660;23.292;2023-07-28T10:41:21;4.08;;;3.20;;
22929;SDS011;11630;42.660;23.292;2023-07-28T10:43:52;6.90;;;3.00;;
22929;SDS011;11630;42.660;23.292;2023-07-28T10:46:23;3.72;;;3.08;;
22929;SDS011;11630;42.660;23.292;2023-07-28T10:48:55;5.50;;;3.40;;
22929;SDS011;11630;42.660;23.292;2023-07-28T10:51:27;6.10;;;3.62;;
22929;SDS011;11630;42.660;23.292;2023-07-28T10:53:58;3.87;;;2.65;;
22929;SDS011;11630;42.660;23.292;2023-07-28T10:56:31;9.43;;;4.10;;
22929;SDS011;11630;42.660;23.292;2023-07-28T10:59:03;10.28;;;2.95;;
22929;SDS011;11630;42.660;23.292;2023-07-28T11:01:38;3.77;;;3.00;;
22929;SDS011;11630;42.660;23.292;2023-07-28T11:04:13;9.23;;;2.83;;
22929;SDS011;11630;42.660;23.292;2023-07-28T11:06:47;10.00;;;2.60;;
22929;SDS011;11630;42.660;23.292;2023-07-28T11:09:21;9.70;;;2.45;;
22929;SDS011;11630;42.660;23.292;2023-07-28T11:11:53;5.15;;;3.05;;
22929;SDS011;11630;42.660;23.292;2023-07-28T11:14:27;4.62;;;2.40;;
22929;SDS011;11630;42.660;23.292;2023-07-28T11:16:57;6.03;;;2.27;;
22929;SDS011;11630;42.660;23.292;2023-07-28T11:19:27;3.10;;;2.62;;
22929;SDS011;11630;42.660;23.292;2023-07-28T11:21:58;6.15;;;2.40;;
22929;SDS011;11630;42.660;23.292;2023-07-28T11:24:29;7.05;;;2.72;;
22929;SDS011;11630;42.660;23.292;2023-07-28T11:27:00;3.58;;;1.95;;
22929;SDS011;11630;42.660;23.292;2023-07-28T11:29:31;3.98;;;2.72;;
22929;SDS011;11630;42.660;23.292;2023-07-28T11:32:03;14.10;;;2.15;;
22929;SDS011;11630;42.660;23.292;2023-07-28T11:34:38;2.65;;;2.45;;
22929;SDS011;11630;42.660;23.292;2023-07-28T11:37:08;3.95;;;1.95;;
22929;SDS011;11630;42.660;23.292;2023-07-28T11:39:40;7.35;;;2.27;;
22929;SDS011;11630;42.660;23.292;2023-07-28T11:42:11;2.20;;;1.87;;
22929;SDS011;11630;42.660;23.292;2023-07-28T11:44:43;10.03;;;2.77;;
22929;SDS011;11630;42.660;23.292;2023-07-28T11:47:17;2.98;;;2.00;;
22929;SDS011;11630;42.660;23.292;2023-07-28T11:49:48;8.60;;;2.30;;
22929;SDS011;11630;42.660;23.292;2023-07-28T11:52:19;6.40;;;2.00;;
22929;SDS011;11630;42.660;23.292;2023-07-28T11:54:51;5.15;;;2.55;;
22929;SDS011;11630;42.660;23.292;2023-07-28T11:57:22;3.45;;;2.80;;
22929;SDS011;11630;42.660;23.292;2023-07-28T11:59:54;3.30;;;2.40;;
22929;SDS011;11630;42.660;23.292;2023-07-28T12:02:26;3.75;;;2.12;;
22929;SDS011;11630;42.660;23.292;2023-07-28T12:05:00;6.12;;;2.62;;
22929;SDS011;11630;42.660;23.292;2023-07-28T12:07:31;6.90;;;2.58;;
22929;SDS011;11630;42.660;23.292;2023-07-28T12:10:04;4.58;;;2.08;;
22929;SDS011;11630;42.660;23.292;2023-07-28T12:12:43;2.58;;;2.37;;
22929;SDS011;11630;42.660;23.292;2023-07-28T12:15:25;2.95;;;2.47;;
22929;SDS011;11630;42.660;23.292;2023-07-28T12:18:04;2.40;;;2.17;;
22929;SDS011;11630;42.660;23.292;2023-07-28T12:20:42;2.83;;;2.17;;
22929;SDS011;11630;42.660;23.292;2023-07-28T12:23:17;2.80;;;2.50;;
22929;SDS011;11630;42.660;23.292;2023-07-28T12:25:49;3.95;;;2.47;;
22929;SDS011;11630;42.660;23.292;2023-07-28T12:28:20;4.70;;;2.70;;
22929;SDS011;11630;42.660;23.292;2023-07-28T12:30:50;2.98;;;2.35;;
22929;SDS011;11630;42.660;23.292;2023-07-28T12:33:21;6.03;;;2.80;;
22929;SDS011;11630;42.660;23.292;2023-07-28T12:35:52;2.30;;;2.10;;
22929;SDS011;11630;42.660;23.292;2023-07-28T12:38:23;3.08;;;2.77;;
22929;SDS011;11630;42.660;23.292;2023-07-28T12:40:54;5.78;;;2.47;;
22929;SDS011;11630;42.660;23.292;2023-07-28T12:43:25;5.45;;;2.10;;
22929;SDS011;11630;42.660;23.292;2023-07-28T12:45:55;3.45;;;2.60;;
22929;SDS011;11630;42.660;23.292;2023-07-28T12:48:26;6.58;;;3.30;;
22929;SDS011;11630;42.660;23.292;2023-07-28T12:50:57;3.75;;;2.75;;
22929;SDS011;11630;42.660;23.292;2023-07-28T12:53:28;4.97;;;2.50;;
22929;SDS011;11630;42.660;23.292;2023-07-28T12:55:59;4.40;;;2.25;;
22929;SDS011;11630;42.660;23.292;2023-07-28T12:58:35;3.33;;;2.40;;
22929;SDS011;11630;42.660;23.292;2023-07-28T13:01:06;2.52;;;2.33;;
22929;SDS011;11630;42.660;23.292;2023-07-28T13:03:37;5.72;;;2.05;;
22929;SDS011;11630;42.660;23.292;2023-07-28T13:06:08;2.70;;;2.30;;
22929;SDS011;11630;42.660;23.292;2023-07-28T13:08:39;3.22;;;2.52;;
22929;SDS011;11630;42.660;23.292;2023-07-28T13:11:10;4.45;;;2.37;;
22929;SDS011;11630;42.660;23.292;2023-07-28T13:13:40;3.22;;;2.42;;
22929;SDS011;11630;42.660;23.292;2023-07-28T13:16:11;9.83;;;2.62;;
22929;SDS011;11630;42.660;23.292;2023-07-28T13:18:42;3.37;;;2.75;;
22929;SDS011;11630;42.660;23.292;2023-07-28T13:21:18;3.10;;;2.17;;
22929;SDS011;11630;42.660;23.292;2023-07-28T13:23:45;3.05;;;2.30;;
22929;SDS011;11630;42.660;23.292;2023-07-28T13:26:15;2.58;;;2.37;;
22929;SDS011;11630;42.660;23.292;2023-07-28T13:28:46;3.45;;;2.45;;
22929;SDS011;11630;42.660;23.292;2023-07-28T13:31:17;3.10;;;1.98;;
22929;SDS011;11630;42.660;23.292;2023-07-28T13:33:48;2.42;;;1.90;;
22929;SDS011;11630;42.660;23.292;2023-07-28T13:36:18;2.65;;;1.98;;
22929;SDS011;11630;42.660;23.292;2023-07-28T13:38:49;4.03;;;2.20;;
22929;SDS011;11630;42.660;23.292;2023-07-28T13:41:20;2.70;;;2.20;;
22929;SDS011;11630;42.660;23.292;2023-07-28T13:43:51;2.15;;;1.95;;
22929;SDS011;11630;42.660;23.292;2023-07-28T13:46:22;2.17;;;1.80;;
22929;SDS011;11630;42.660;23.292;2023-07-28T13:48:52;2.27;;;2.08;;
22929;SDS011;11630;42.660;23.292;2023-07-28T13:51:24;2.60;;;2.40;;
22929;SDS011;11630;42.660;23.292;2023-07-28T13:53:55;3.40;;;2.30;;
22929;SDS011;11630;42.660;23.292;2023-07-28T13:56:26;2.27;;;2.12;;
22929;SDS011;11630;42.660;23.292;2023-07-28T13:58:57;3.90;;;2.72;;
22929;SDS011;11630;42.660;23.292;2023-07-28T14:01:28;3.37;;;2.40;;
22929;SDS011;11630;42.660;23.292;2023-07-28T14:03:59;2.08;;;1.95;;
22929;SDS011;11630;42.660;23.292;2023-07-28T14:06:30;5.72;;;2.10;;
22929;SDS011;11630;42.660;23.292;2023-07-28T14:09:02;8.65;;;3.85;;
22929;SDS011;11630;42.660;23.292;2023-07-28T14:11:34;2.50;;;2.30;;
22929;SDS011;11630;42.660;23.292;2023-07-28T14:14:05;4.30;;;2.47;;
22929;SDS011;11630;42.660;23.292;2023-07-28T14:16:36;2.35;;;2.15;;
22929;SDS011;11630;42.660;23.292;2023-07-28T14:19:07;2.55;;;2.33;;
22929;SDS011;11630;42.660;23.292;2023-07-28T14:21:40;4.72;;;2.55;;
22929;SDS011;11630;42.660;23.292;2023-07-28T14:24:12;6.85;;;2.40;;
22929;SDS011;11630;42.660;23.292;2023-07-28T14:26:42;2.98;;;2.65;;
22929;SDS011;11630;42.660;23.292;2023-07-28T14:29:13;3.87;;;2.42;;
22929;SDS011;11630;42.660;23.292;2023-07-28T14:31:43;3.22;;;2.85;;
22929;SDS011;11630;42.660;23.292;2023-07-28T14:34:13;4.65;;;2.30;;
22929;SDS011;11630;42.660;23.292;2023-07-28T14:36:44;2.55;;;2.00;;
22929;SDS011;11630;42.660;23.292;2023-07-28T14:39:15;4.83;;;2.67;;
22929;SDS011;11630;42.660;23.292;2023-07-28T14:41:45;4.08;;;2.98;;
22929;SDS011;11630;42.660;23.292;2023-07-28T14:44:16;4.67;;;2.05;;
22929;SDS011;11630;42.660;23.292;2023-07-28T14:46:46;2.45;;;2.22;;
22929;SDS011;11630;42.660;23.292;2023-07-28T14:49:18;3.70;;;2.72;;
22929;SDS011;11630;42.660;23.292;2023-07-28T14:51:48;2.52;;;2.33;;
22929;SDS011;11630;42.660;23.292;2023-07-28T14:54:19;4.60;;;2.77;;
22929;SDS011;11630;42.660;23.292;2023-07-28T14:56:50;3.50;;;3.00;;
22929;SDS011;11630;42.660;23.292;2023-07-28T14:59:20;3.72;;;2.60;;
22929;SDS011;11630;42.660;23.292;2023-07-28T15:01:52;6.12;;;2.87;;
22929;SDS011;11630;42.660;23.292;2023-07-28T15:04:24;3.30;;;2.60;;